Terminal Aerodrome Forecast
Issued by NWS

Home | Current Version | Previous Version | Graphics & Text | Print | Product List | Glossary On
Versions: 1 2 3 4 5 6 7 8 9 10 11 12 13 14 15 16 17 18 19 20 21
000
FTUS43 KABR 272323
TAFATY
TAF
KATY 272323Z 2800/2824 VRB05KT P6SM SCT070
     FM280500 16008KT P6SM OVC250
     FM281900 19016KT P6SM -SHRA VCTS SCT050CB BKN250=

USA.gov is the U.S. government's official web portal to all federal, state and local government web resources and services.